Time;durP1;ratioP1;P1;durP2;ratioP2;P2;SDS_P1;SDS_P2;PMS_P1;PMS_P2;Temp;Humidity;BMP_temperature;BMP_pressure;BME280_temperature;BME280_humidity;BME280_pressure;Samples;Min_cycle;Max_cycle;Signal;HPM_P1;HPM_P2
2022/04/14 00:00:12;;;;;;;528.60;472.50;;;;;;;15.04;49.35;101222.03;680163;29;22231;-67
2022/04/14 00:00:34;;;;;;;524.30;468.50;;;;;;;15.03;49.21;101223.06;674968;29;113365;-67
2022/04/14 00:00:56;;;;;;;494.42;422.08;;;;;;;15.00;48.79;101225.31;676662;29;45184;-67
2022/04/14 00:01:17;;;;;;;494.20;417.98;;;;;;;14.97;49.18;101229.28;676815;29;46291;-67
2022/04/14 00:01:46;;;;;;;497.48;433.23;;;;;;;14.93;49.33;101217.09;675702;29;60686;-67
2022/04/14 00:02:08;;;;;;;510.10;454.38;;;;;;;14.90;49.43;101221.03;681219;28;22189;-67
2022/04/14 00:02:29;;;;;;;506.00;450.35;;;;;;;14.88;49.25;101214.13;683582;28;46704;-68
2022/04/14 00:02:50;;;;;;;492.25;409.88;;;;;;;14.87;49.61;101224.16;686277;28;21533;-68
2022/04/14 00:03:11;;;;;;;486.88;379.25;;;;;;;14.84;49.37;101219.09;685608;28;22389;-67
2022/04/14 00:03:32;;;;;;;489.35;386.75;;;;;;;14.84;49.44;101220.97;685191;28;22393;-68
2022/04/14 00:03:54;;;;;;;488.55;382.27;;;;;;;14.82;49.59;101218.47;685796;28;23528;-67
2022/04/14 00:04:16;;;;;;;487.80;383.60;;;;;;;14.83;50.06;101222.88;681686;28;46834;-67
2022/04/14 00:04:37;;;;;;;488.40;383.30;;;;;;;14.81;49.69;101219.50;682039;28;22434;-68
2022/04/14 00:04:59;;;;;;;488.73;386.00;;;;;;;14.80;50.13;101217.00;682349;28;46254;-68
2022/04/14 00:05:20;;;;;;;490.23;391.10;;;;;;;14.79;50.25;101221.56;682441;28;22250;-68
2022/04/14 00:05:41;;;;;;;490.30;391.00;;;;;;;14.77;49.99;101216.31;681680;28;45120;-68
2022/04/14 00:06:02;;;;;;;489.08;389.40;;;;;;;14.80;49.93;101217.00;683378;28;22407;-68
2022/04/14 00:06:24;;;;;;;489.13;390.27;;;;;;;14.80;50.01;101220.53;685068;28;22417;-68
2022/04/14 00:06:45;;;;;;;489.88;392.23;;;;;;;14.81;50.07;101224.09;683437;28;45196;-68
2022/04/14 00:07:06;;;;;;;489.90;393.10;;;;;;;14.81;50.10;101221.38;685281;28;23478;-68
2022/04/14 00:07:27;;;;;;;489.42;390.17;;;;;;;14.80;49.74;101225.16;684485;28;22344;-68
2022/04/14 00:07:49;;;;;;;487.27;381.50;;;;;;;14.79;49.93;101216.13;684933;28;22389;-68
2022/04/14 00:08:11;;;;;;;488.80;383.83;;;;;;;14.80;50.10;101223.25;684230;28;45460;-68
2022/04/14 00:08:32;;;;;;;489.58;389.90;;;;;;;14.80;50.24;101225.16;685452;28;22358;-68
2022/04/14 00:08:53;;;;;;;491.42;405.75;;;;;;;14.80;50.04;101220.53;685375;28;22483;-68
2022/04/14 00:09:15;;;;;;;494.10;419.77;;;;;;;14.81;50.11;101222.22;685488;28;44331;-68
2022/04/14 00:09:36;;;;;;;496.42;422.60;;;;;;;14.78;49.74;101215.28;684546;28;22480;-68
2022/04/14 00:09:59;;;;;;;500.17;441.55;;;;;;;14.80;49.87;101217.00;684630;28;46468;-68
2022/04/14 00:10:20;;;;;;;491.58;405.95;;;;;;;14.78;50.01;101215.28;682884;28;69345;-68
2022/04/14 00:10:42;;;;;;;496.35;428.90;;;;;;;14.79;49.90;101216.13;684864;28;22387;-68
2022/04/14 00:11:03;;;;;;;498.30;441.23;;;;;;;14.77;49.84;101219.03;684534;28;45345;-68
2022/04/14 00:11:24;;;;;;;497.88;438.73;;;;;;;14.75;50.04;101218.41;684783;28;23451;-68
2022/04/14 00:11:45;;;;;;;497.45;437.83;;;;;;;14.78;50.13;101218.00;684008;28;22394;-67
2022/04/14 00:12:07;;;;;;;507.20;451.83;;;;;;;14.78;49.91;101226.16;685387;28;22328;-68
2022/04/14 00:12:28;;;;;;;511.15;455.65;;;;;;;14.78;49.93;101220.72;684871;28;46321;-68
2022/04/14 00:12:50;;;;;;;508.25;452.85;;;;;;;14.78;49.73;101218.00;685564;28;22394;-68
2022/04/14 00:13:11;;;;;;;507.42;451.92;;;;;;;14.79;49.79;101221.56;685593;28;23335;-68
2022/04/14 00:13:33;;;;;;;508.27;452.88;;;;;;;14.79;49.71;101218.84;685586;28;22319;-68
2022/04/14 00:13:55;;;;;;;510.88;455.40;;;;;;;14.77;50.03;101216.31;685014;28;47230;-68
2022/04/14 00:14:16;;;;;;;530.15;474.27;;;;;;;14.78;50.22;101223.44;684359;28;46503;-67
2022/04/14 00:14:37;;;;;;;529.97;474.05;;;;;;;14.78;49.99;101215.28;685126;28;23422;-68
2022/04/14 00:15:00;;;;;;;524.10;468.38;;;;;;;14.76;50.01;101222.81;684258;28;1354;-68
2022/04/14 00:15:22;;;;;;;519.70;464.08;;;;;;;14.77;49.88;101224.47;680131;28;92105;-67
2022/04/14 00:15:43;;;;;;;509.48;454.05;;;;;;;14.76;49.88;101219.22;682241;28;21250;-69
2022/04/14 00:16:04;;;;;;;510.13;454.67;;;;;;;14.74;49.84;101224.84;683129;28;22411;-68
2022/04/14 00:16:25;;;;;;;505.73;450.33;;;;;;;14.74;50.06;101221.31;681700;28;45631;-68
2022/04/14 00:16:48;;;;;;;505.10;449.67;;;;;;;14.73;49.91;101222.34;683496;28;24418;-68
2022/04/14 00:17:09;;;;;;;505.17;449.85;;;;;;;14.74;49.72;101221.31;685164;28;44425;-68
2022/04/14 00:17:32;;;;;;;517.38;461.80;;;;;;;14.74;50.13;101221.31;685064;28;23716;-68
2022/04/14 00:17:53;;;;;;;541.63;485.60;;;;;;;14.73;50.12;101215.03;683281;28;90483;-68
2022/04/14 00:18:15;;;;;;;530.33;474.35;;;;;;;14.72;50.27;101226.94;685259;28;22393;-68
2022/04/14 00:18:36;;;;;;;532.97;476.98;;;;;;;14.71;49.94;101218.97;685221;28;45253;-68
2022/04/14 00:18:57;;;;;;;539.40;483.30;;;;;;;14.71;50.20;101221.69;682930;28;19456;-68
2022/04/14 00:19:18;;;;;;;530.50;474.63;;;;;;;14.71;50.30;101225.25;682766;28;21302;-68
2022/04/14 00:19:45;;;;;;;534.15;477.92;;;;;;;14.71;49.85;101219.81;682052;28;22361;-68
2022/04/14 00:20:08;;;;;;;515.88;460.20;;;;;;;14.68;50.25;101216.63;678519;28;136355;-68
2022/04/14 00:20:29;;;;;;;514.33;458.70;;;;;;;14.70;49.91;101220.00;681457;28;69261;-68
2022/04/14 00:20:50;;;;;;;525.30;469.40;;;;;;;14.70;49.65;101212.69;684135;28;20922;-68
2022/04/14 00:21:12;;;;;;;507.60;452.10;;;;;;;14.71;50.16;101217.09;685813;28;22232;-68
2022/04/14 00:21:34;;;;;;;519.92;464.13;;;;;;;14.73;49.94;101219.63;685500;28;22425;-68
2022/04/14 00:21:55;;;;;;;517.38;461.58;;;;;;;14.72;49.60;101221.50;683124;28;65442;-68
2022/04/14 00:22:16;;;;;;;509.85;454.35;;;;;;;14.72;49.65;101217.94;685251;28;22387;-68
2022/04/14 00:22:37;;;;;;;511.30;455.83;;;;;;;14.72;49.44;101215.22;685893;28;21535;-68
2022/04/14 00:22:59;;;;;;;518.78;463.15;;;;;;;14.74;49.76;101222.16;685514;28;45123;-68
2022/04/14 00:23:21;;;;;;;512.15;456.42;;;;;;;14.72;49.58;101213.34;684303;28;46401;-68
2022/04/14 00:23:42;;;;;;;507.75;452.25;;;;;;;14.75;49.46;101217.56;685927;28;22385;-68
2022/04/14 00:24:04;;;;;;;521.92;466.30;;;;;;;14.75;49.28;101217.56;685566;28;23549;-68
2022/04/14 00:24:28;;;;;;;519.53;463.70;;;;;;;14.76;49.07;101213.78;684115;28;70209;-68
2022/04/14 00:24:49;;;;;;;514.57;458.97;;;;;;;14.77;49.49;101212.78;683248;28;92285;-68
2022/04/14 00:25:12;;;;;;;524.53;468.73;;;;;;;14.77;49.51;101216.31;684861;28;44044;-68
2022/04/14 00:25:33;;;;;;;521.58;465.73;;;;;;;14.78;49.54;101222.63;684809;28;45301;-68
2022/04/14 00:25:55;;;;;;;498.83;443.50;;;;;;;14.75;49.95;101215.69;685853;28;23716;-68
2022/04/14 00:26:16;;;;;;;516.55;460.85;;;;;;;14.75;49.88;101214.84;682360;28;47406;-68
2022/04/14 00:26:37;;;;;;;519.42;463.67;;;;;;;14.74;49.79;101216.69;682236;28;23473;-68
2022/04/14 00:26:58;;;;;;;533.83;477.88;;;;;;;14.75;49.81;101214.84;683542;28;966;-68
2022/04/14 00:27:20;;;;;;;539.05;482.95;;;;;;;14.75;49.59;101212.97;680111;29;23389;-68
2022/04/14 00:27:41;;;;;;;520.08;464.35;;;;;;;14.76;50.01;101221.94;678935;29;69310;-68
2022/04/14 00:28:03;;;;;;;534.88;478.80;;;;;;;14.77;49.94;101216.31;680171;28;23186;-68
2022/04/14 00:28:24;;;;;;;506.98;451.35;;;;;;;14.75;50.10;101223.84;682639;28;21499;-68
2022/04/14 00:28:46;;;;;;;509.95;454.35;;;;;;;14.74;50.11;101221.31;683077;28;21467;-68
2022/04/14 00:29:08;;;;;;;520.63;464.83;;;;;;;14.75;49.96;101218.41;682077;28;44418;-68
2022/04/14 00:29:29;;;;;;;514.22;458.48;;;;;;;14.75;49.98;101223.00;683877;28;46314;-68
2022/04/14 00:29:50;;;;;;;512.50;456.80;;;;;;;14.74;49.91;101221.31;685442;28;23461;-68
2022/04/14 00:30:12;;;;;;;511.48;455.85;;;;;;;14.73;50.17;101223.19;685696;28;23474;-68
2022/04/14 00:30:34;;;;;;;529.00;473.02;;;;;;;14.73;49.93;101214.19;683171;28;46313;-68
2022/04/14 00:30:55;;;;;;;526.85;470.85;;;;;;;14.77;49.69;101224.47;684302;28;45228;-68
2022/04/14 00:31:16;;;;;;;526.65;470.60;;;;;;;14.75;49.49;101215.69;685480;28;21546;-68
2022/04/14 00:31:38;;;;;;;500.63;445.13;;;;;;;14.76;49.33;101224.66;684938;28;23402;-68
2022/04/14 00:32:00;;;;;;;511.60;455.90;;;;;;;14.75;49.82;101218.41;684875;28;46800;-68
2022/04/14 00:32:21;;;;;;;507.95;452.10;;;;;;;14.74;49.59;101227.56;684969;28;46278;-68
2022/04/14 00:32:42;;;;;;;503.60;448.00;;;;;;;14.75;49.44;101228.44;685771;28;23978;-68
2022/04/14 00:33:03;;;;;;;520.67;464.88;;;;;;;14.74;49.36;101229.47;685768;28;22604;-68
2022/04/14 00:33:24;;;;;;;510.98;455.27;;;;;;;14.73;49.81;101230.50;685794;28;22349;-68
2022/04/14 00:33:46;;;;;;;532.60;476.55;;;;;;;14.70;49.58;101225.44;685610;28;23591;-68
2022/04/14 00:34:07;;;;;;;540.28;484.00;;;;;;;14.71;49.96;101229.84;684694;28;44443;-68
2022/04/14 00:34:28;;;;;;;539.05;482.77;;;;;;;14.70;50.04;101231.75;684652;28;44306;-67
2022/04/14 00:34:49;;;;;;;526.28;470.35;;;;;;;14.68;49.60;101225.63;685801;28;23833;-67
2022/04/14 00:35:14;;;;;;;531.40;475.30;;;;;;;14.69;49.78;101234.66;685805;28;23415;-68
2022/04/14 00:35:36;;;;;;;517.53;461.65;;;;;;;14.69;50.10;101229.22;683202;28;92219;-68
2022/04/14 00:35:57;;;;;;;512.30;456.63;;;;;;;14.69;49.91;101229.22;684903;28;47890;-68
2022/04/14 00:36:18;;;;;;;510.92;455.27;;;;;;;14.69;50.04;101235.47;685623;28;23173;-67
2022/04/14 00:36:39;;;;;;;527.47;471.38;;;;;;;14.70;49.75;101230.88;684629;28;23405;-68
2022/04/14 00:37:01;;;;;;;534.47;478.42;;;;;;;14.69;49.84;101224.59;685795;28;21543;-67
2022/04/14 00:37:23;;;;;;;541.13;484.83;;;;;;;14.67;49.76;101231.25;683021;28;69639;-68
2022/04/14 00:37:44;;;;;;;528.90;472.92;;;;;;;14.70;50.22;101234.44;685760;28;22187;-68
2022/04/14 00:38:05;;;;;;;529.75;473.70;;;;;;;14.68;50.00;101222.91;685571;28;21273;-68
2022/04/14 00:38:26;;;;;;;537.83;481.52;;;;;;;14.69;50.43;101223.78;686169;28;23339;-68
2022/04/14 00:38:48;;;;;;;528.83;472.83;;;;;;;14.72;50.19;101229.66;685478;28;23468;-67
2022/04/14 00:39:09;;;;;;;513.13;457.40;;;;;;;14.71;49.72;101227.13;685133;28;44400;-68
2022/04/14 00:39:30;;;;;;;503.08;447.55;;;;;;;14.70;49.79;101222.72;685527;28;21513;-68
2022/04/14 00:39:52;;;;;;;512.13;456.38;;;;;;;14.68;50.06;101220.19;685499;28;23422;-68
2022/04/14 00:40:15;;;;;;;499.10;443.40;;;;;;;14.73;49.65;101227.78;684724;28;47352;-68
2022/04/14 00:40:36;;;;;;;533.38;477.27;;;;;;;14.74;49.82;101224.84;684085;28;69985;-68
2022/04/14 00:40:57;;;;;;;531.25;475.15;;;;;;;14.73;49.70;101225.91;685396;28;23469;-68
2022/04/14 00:41:18;;;;;;;520.20;464.33;;;;;;;14.71;49.72;101227.13;685735;28;22369;-68
2022/04/14 00:41:40;;;;;;;541.65;485.45;;;;;;;14.69;49.82;101227.31;684967;28;22539;-67
2022/04/14 00:42:01;;;;;;;536.58;480.48;;;;;;;14.70;49.67;101229.03;684918;28;44457;-68
2022/04/14 00:42:23;;;;;;;528.17;472.20;;;;;;;14.69;49.81;101232.75;685489;28;22393;-68
2022/04/14 00:42:44;;;;;;;514.67;458.98;;;;;;;14.69;49.77;101229.22;684922;28;46308;-68
2022/04/14 00:43:05;;;;;;;502.75;447.25;;;;;;;14.66;50.04;101221.44;685538;28;24343;-68
2022/04/14 00:43:31;;;;;;;514.22;458.52;;;;;;;14.67;50.04;101231.25;682434;28;21548;-68
2022/04/14 00:43:54;;;;;;;512.92;457.23;;;;;;;14.64;49.68;101227.06;678541;28;139329;-68
2022/04/14 00:44:15;;;;;;;517.00;461.20;;;;;;;14.63;49.83;101224.53;681211;28;69226;-68
2022/04/14 00:44:36;;;;;;;521.80;466.00;;;;;;;14.62;49.80;101226.41;682775;28;23423;-68
2022/04/14 00:44:57;;;;;;;532.15;476.10;;;;;;;14.62;50.16;101226.41;679724;29;20806;-68
2022/04/14 00:45:19;;;;;;;539.88;483.67;;;;;;;14.60;50.17;101226.59;681317;28;23259;-68
2022/04/14 00:45:42;;;;;;;544.30;488.02;;;;;;;14.61;49.90;101230.16;682129;28;46302;-68
2022/04/14 00:46:03;;;;;;;533.28;477.38;;;;;;;14.59;50.21;101226.75;678665;29;69440;-68
2022/04/14 00:46:24;;;;;;;511.05;455.33;;;;;;;14.57;49.95;101220.66;680940;29;23740;-68
2022/04/14 00:46:46;;;;;;;513.10;457.40;;;;;;;14.57;50.30;101226.09;679636;28;24739;-68
2022/04/14 00:47:07;;;;;;;504.70;449.10;;;;;;;14.57;49.92;101229.66;681957;28;44385;-68
2022/04/14 00:47:29;;;;;;;501.33;445.83;;;;;;;14.55;50.05;101228.19;682651;28;22435;-68
2022/04/14 00:47:52;;;;;;;521.42;465.48;;;;;;;14.53;50.25;101225.66;682372;28;46306;-68
2022/04/14 00:48:13;;;;;;;537.80;481.50;;;;;;;14.51;50.11;101221.44;683717;28;69338;-68
2022/04/14 00:48:35;;;;;;;518.22;462.38;;;;;;;14.51;50.42;101222.25;685265;28;22398;-68
2022/04/14 00:48:56;;;;;;;523.78;467.90;;;;;;;14.51;50.31;101226.88;684598;28;47202;-68
2022/04/14 00:49:19;;;;;;;502.85;447.38;;;;;;;14.49;50.12;101223.50;685940;28;23513;-68
2022/04/14 00:49:41;;;;;;;500.73;444.40;;;;;;;14.48;50.14;101222.69;683126;28;69261;-68
2022/04/14 00:50:02;;;;;;;501.90;446.35;;;;;;;14.48;50.48;101224.53;685490;28;22398;-68
2022/04/14 00:50:24;;;;;;;510.90;455.27;;;;;;;14.45;50.45;101219.47;684776;28;19449;-68
2022/04/14 00:50:45;;;;;;;520.72;464.88;;;;;;;14.46;50.88;101221.16;681548;28;44114;-68
2022/04/14 00:51:07;;;;;;;536.17;479.98;;;;;;;14.44;50.60;101220.53;682922;28;22378;-68
2022/04/14 00:51:28;;;;;;;524.92;468.92;;;;;;;14.47;50.30;101226.41;681534;28;46127;-68
2022/04/14 00:51:50;;;;;;;527.35;471.25;;;;;;;14.45;50.45;101224.91;681631;28;23739;-68
2022/04/14 00:52:14;;;;;;;513.30;457.50;;;;;;;14.45;50.45;101225.78;681835;28;44451;-68
2022/04/14 00:52:42;;;;;;;498.52;437.92;;;;;;;14.41;50.63;101222.56;681241;28;92522;-68
2022/04/14 00:53:04;;;;;;;504.23;448.73;;;;;;;14.38;50.54;101220.22;681816;28;138739;-68
2022/04/14 00:53:26;;;;;;;504.02;448.52;;;;;;;14.44;50.46;101223.25;685361;28;23564;-68
2022/04/14 00:53:47;;;;;;;506.33;450.80;;;;;;;14.42;50.46;101229.72;684417;28;46328;-68
2022/04/14 00:54:08;;;;;;;524.65;468.65;;;;;;;14.40;50.61;101223.63;685007;28;46255;-68
2022/04/14 00:54:30;;;;;;;515.50;459.60;;;;;;;14.41;50.75;101229.91;686146;28;1553;-68
2022/04/14 00:54:53;;;;;;;502.35;446.85;;;;;;;14.38;50.33;101233.81;684688;28;47130;-68
2022/04/14 00:55:15;;;;;;;499.10;439.45;;;;;;;14.39;50.35;101224.66;684764;28;46285;-68
2022/04/14 00:55:36;;;;;;;518.33;462.42;;;;;;;14.37;50.62;101218.56;684085;28;70038;-67
2022/04/14 00:55:58;;;;;;;518.15;462.42;;;;;;;14.37;50.76;101231.28;682247;28;24333;-68
2022/04/14 00:56:19;;;;;;;514.15;458.48;;;;;;;14.33;50.72;101233.56;682316;28;44276;-68
2022/04/14 00:56:41;;;;;;;498.02;439.67;;;;;;;14.34;50.51;101220.81;678847;29;21990;-68
2022/04/14 00:57:03;;;;;;;512.88;457.10;;;;;;;14.35;50.47;101219.78;679957;29;21529;-68
2022/04/14 00:57:25;;;;;;;522.85;466.92;;;;;;;14.36;50.49;101230.47;679075;29;46548;-68
2022/04/14 00:57:46;;;;;;;512.25;456.55;;;;;;;14.35;50.87;101233.38;679058;28;67241;-68
2022/04/14 00:58:07;;;;;;;513.70;457.88;;;;;;;14.34;50.66;101218.94;682297;28;23399;-68
2022/04/14 00:58:29;;;;;;;497.70;435.27;;;;;;;14.33;50.48;101225.41;683846;28;1455;-68
2022/04/14 00:58:51;;;;;;;499.45;444.05;;;;;;;14.34;50.01;101215.38;685565;28;23495;-68
2022/04/14 00:59:12;;;;;;;501.10;445.50;;;;;;;14.32;50.14;101231.88;684538;28;46399;-68
2022/04/14 00:59:34;;;;;;;517.45;461.45;;;;;;;14.33;49.94;101227.28;684957;28;20807;-68
2022/04/14 00:59:55;;;;;;;526.22;470.02;;;;;;;14.32;50.05;101223.72;685597;28;23512;-68
2022/04/14 01:00:17;;;;;;;512.63;456.88;;;;;;;14.33;50.25;101221.84;684499;28;47559;-68
2022/04/14 01:00:38;;;;;;;498.70;439.25;;;;;;;14.31;50.09;101230.19;684551;28;47210;-67
2022/04/14 01:01:00;;;;;;;498.20;437.95;;;;;;;14.31;49.85;101219.34;686321;28;1007;-68
2022/04/14 01:01:21;;;;;;;496.75;433.02;;;;;;;14.32;49.82;101229.16;687037;28;1144;-68
2022/04/14 01:01:44;;;;;;;499.00;442.58;;;;;;;14.33;50.17;101217.25;685538;28;5346;-68
2022/04/14 01:02:05;;;;;;;501.25;445.70;;;;;;;14.35;50.38;101223.34;684353;28;46286;-68
2022/04/14 01:02:26;;;;;;;530.03;473.83;;;;;;;14.33;50.27;101217.25;685974;28;1159;-68
2022/04/14 01:02:47;;;;;;;527.20;471.23;;;;;;;14.34;50.16;101226.25;683752;28;44247;-68
2022/04/14 01:03:09;;;;;;;513.63;457.83;;;;;;;14.33;50.09;101224.56;685323;28;22387;-68
2022/04/14 01:03:31;;;;;;;499.90;437.90;;;;;;;14.33;50.04;101230.84;684844;28;46360;-68
2022/04/14 01:03:53;;;;;;;515.72;459.90;;;;;;;14.31;50.11;101215.75;684659;28;44441;-68
2022/04/14 01:04:15;;;;;;;521.33;465.42;;;;;;;14.33;50.28;101225.41;684506;28;46377;-68
2022/04/14 01:04:37;;;;;;;498.52;441.08;;;;;;;14.31;50.22;101218.47;685489;28;21529;-68
2022/04/14 01:04:59;;;;;;;497.58;431.95;;;;;;;14.30;50.22;101220.34;683131;28;12598;-68
2022/04/14 01:05:21;;;;;;;499.30;443.13;;;;;;;14.28;50.56;101221.56;683763;28;22065;-68
2022/04/14 01:05:44;;;;;;;512.40;456.70;;;;;;;14.29;50.88;101229.53;681079;28;69501;-68
2022/04/14 01:06:05;;;;;;;499.48;438.92;;;;;;;14.28;50.39;101227.88;680109;28;92079;-68
2022/04/14 01:06:26;;;;;;;498.48;431.38;;;;;;;14.26;50.47;101229.06;683726;28;1826;-68
2022/04/14 01:06:49;;;;;;;496.55;428.42;;;;;;;14.23;50.47;101225.72;682740;28;23358;-68
2022/04/14 01:07:10;;;;;;;496.58;428.30;;;;;;;14.22;50.91;101226.72;684698;28;47001;-68
2022/04/14 01:07:34;;;;;;;497.60;429.42;;;;;;;14.19;50.67;101220.84;685559;28;22505;-67
2022/04/14 01:07:55;;;;;;;496.17;429.10;;;;;;;14.23;50.92;101225.72;683048;28;92324;-68
2022/04/14 01:08:18;;;;;;;500.02;443.50;;;;;;;14.22;50.94;101224.00;685383;28;24056;-68
2022/04/14 01:09:26;;;;;;;497.85;437.63;;;;;;;14.17;50.53;101226.47;679961;28;138491;-68
2022/04/14 01:09:48;;;;;;;511.85;455.95;;;;;;;14.14;50.47;101221.41;685046;28;21611;-68
2022/04/14 01:10:10;;;;;;;494.98;411.40;;;;;;;14.13;50.71;101227.88;684794;28;46416;-67
2022/04/14 01:10:33;;;;;;;498.60;429.23;;;;;;;14.14;50.79;101224.13;684583;28;44451;-68
2022/04/14 01:10:56;;;;;;;498.90;432.25;;;;;;;14.13;50.60;101219.72;683013;28;93078;-68
2022/04/14 01:11:17;;;;;;;499.10;434.92;;;;;;;14.13;51.16;101224.31;684249;28;44371;-68
2022/04/14 01:11:38;;;;;;;498.88;442.63;;;;;;;14.15;51.17;101227.69;684493;28;23476;-68
2022/04/14 01:12:01;;;;;;;498.08;435.42;;;;;;;14.14;51.19;101220.56;684760;28;46350;-67
2022/04/14 01:12:23;;;;;;;498.33;430.85;;;;;;;14.14;51.15;101224.13;684418;28;47788;-68
2022/04/14 01:12:44;;;;;;;496.13;428.60;;;;;;;14.15;50.63;101223.09;683957;28;45307;-68
2022/04/14 01:13:05;;;;;;;495.65;424.85;;;;;;;14.16;50.98;101226.66;685208;28;21457;-68
2022/04/14 01:13:27;;;;;;;498.88;436.05;;;;;;;14.15;50.77;101224.97;684399;28;47201;-67
2022/04/14 01:13:48;;;;;;;503.08;447.52;;;;;;;14.19;50.58;101229.00;682549;28;42724;-68
2022/04/14 01:14:18;;;;;;;499.05;434.58;;;;;;;14.17;50.66;101226.47;682651;28;22353;-68
2022/04/14 01:14:39;;;;;;;521.72;465.80;;;;;;;14.17;50.84;101225.59;678940;28;137871;-68
2022/04/14 01:15:01;;;;;;;512.95;457.15;;;;;;;14.18;50.95;101228.13;682636;28;22427;-67
2022/04/14 01:15:22;;;;;;;497.63;430.60;;;;;;;14.16;51.06;101230.19;682059;28;44516;-68
2022/04/14 01:15:44;;;;;;;495.55;420.25;;;;;;;14.18;50.86;101228.13;684211;28;22371;-68
2022/04/14 01:16:05;;;;;;;496.95;431.40;;;;;;;14.20;50.74;101231.53;684510;28;45403;-68
2022/04/14 01:16:26;;;;;;;497.67;430.67;;;;;;;14.22;50.72;101234.06;685175;28;22393;-67
2022/04/14 01:16:48;;;;;;;497.98;436.80;;;;;;;14.22;50.53;101228.63;684385;28;22429;-68
2022/04/14 01:17:09;;;;;;;503.25;447.75;;;;;;;14.21;50.92;101232.34;684760;28;44398;-68
2022/04/14 01:17:30;;;;;;;507.85;452.27;;;;;;;14.20;50.48;101230.66;684693;28;44250;-68
2022/04/14 01:17:52;;;;;;;497.75;435.45;;;;;;;14.20;50.79;101226.09;685674;28;23459;-68
2022/04/14 01:18:14;;;;;;;495.77;422.55;;;;;;;14.22;50.54;101231.34;685562;28;23523;-67
2022/04/14 01:18:35;;;;;;;497.50;430.90;;;;;;;14.22;50.55;101225.91;683745;28;46411;-68
2022/04/14 01:18:56;;;;;;;504.00;448.50;;;;;;;14.19;50.27;101232.53;685387;28;23452;-68
2022/04/14 01:19:17;;;;;;;509.35;453.67;;;;;;;14.17;50.39;101225.59;684793;28;22376;-68
2022/04/14 01:19:39;;;;;;;498.65;435.45;;;;;;;14.16;50.21;101234.81;684891;28;22478;-68
2022/04/14 01:20:00;;;;;;;496.60;425.90;;;;;;;14.12;50.46;101230.75;684132;28;67616;-67
2022/04/14 01:20:22;;;;;;;498.63;438.95;;;;;;;14.06;50.74;101230.50;682132;28;23747;-67
2022/04/14 01:20:43;;;;;;;506.27;450.73;;;;;;;14.02;50.56;101231.06;683113;28;21529;-68
2022/04/14 01:21:05;;;;;;;507.58;452.05;;;;;;;13.98;50.83;101232.47;682697;28;22396;-68
2022/04/14 01:21:28;;;;;;;508.45;452.88;;;;;;;13.93;50.77;101230.28;681537;28;46309;-68
2022/04/14 01:21:53;;;;;;;497.92;438.45;;;;;;;13.85;50.85;101224.97;680297;28;69447;-68
2022/04/14 01:22:18;;;;;;;497.73;427.52;;;;;;;13.78;51.58;101230.31;680587;28;115906;-68
2022/04/14 01:22:44;;;;;;;504.38;448.60;;;;;;;13.75;51.53;101232.56;682228;28;115857;-68
2022/04/14 01:23:08;;;;;;;499.42;441.85;;;;;;;13.73;51.25;101223.75;681482;28;138970;-68
2022/04/14 01:23:44;;;;;;;498.90;434.75;;;;;;;13.70;51.36;101224.97;682968;28;92273;-68
2022/04/14 01:24:07;;;;;;;501.00;445.55;;;;;;;13.68;51.53;101219.72;681283;28;137246;-68
2022/04/14 01:24:28;;;;;;;500.67;444.10;;;;;;;13.70;51.22;101225.81;683684;28;69325;-68
2022/04/14 01:24:50;;;;;;;499.85;439.48;;;;;;;13.71;51.07;101223.94;684390;28;44075;-67
2022/04/14 01:25:11;;;;;;;499.42;438.17;;;;;;;13.68;51.33;101218.88;685181;28;22393;-67
2022/04/14 01:25:34;;;;;;;495.95;418.30;;;;;;;13.72;51.52;101222.91;685183;28;23428;-68
2022/04/14 01:25:55;;;;;;;496.27;422.13;;;;;;;13.69;51.43;101223.28;683488;28;90183;-68
2022/04/14 01:26:17;;;;;;;495.48;417.73;;;;;;;13.67;51.48;101231.59;685276;28;22391;-68
2022/04/14 01:26:38;;;;;;;494.55;418.52;;;;;;;13.66;51.82;101226.38;684573;28;23530;-68
2022/04/14 01:27:00;;;;;;;497.48;433.85;;;;;;;13.66;51.78;101220.94;685663;28;21447;-68
2022/04/14 01:27:22;;;;;;;497.40;437.08;;;;;;;13.65;51.99;101224.66;685493;28;45238;-67
2022/04/14 01:27:43;;;;;;;496.75;435.00;;;;;;;13.65;51.69;101220.09;684276;28;45271;-67
2022/04/14 01:28:05;;;;;;;496.42;427.60;;;;;;;13.68;51.92;101227.00;685640;28;21556;-68
2022/04/14 01:28:27;;;;;;;494.90;419.73;;;;;;;13.68;51.99;101227.00;683560;28;69438;-67
2022/04/14 01:28:48;;;;;;;496.00;426.38;;;;;;;13.68;52.12;101229.72;684457;28;45122;-68
2022/04/14 01:29:20;;;;;;;494.13;416.30;;;;;;;13.70;51.73;101224.97;684374;28;23453;-67
2022/04/14 01:29:41;;;;;;;496.50;420.65;;;;;;;13.70;51.96;101225.81;680359;28;137500;-67
2022/04/14 01:30:03;;;;;;;494.63;416.95;;;;;;;13.72;52.08;101219.38;685172;28;22628;-68
2022/04/14 01:30:25;;;;;;;495.38;424.13;;;;;;;13.73;52.17;101227.31;684953;28;46388;-67
2022/04/14 01:30:46;;;;;;;496.00;430.48;;;;;;;13.73;51.79;101227.31;684440;28;42457;-67
2022/04/14 01:31:07;;;;;;;492.50;412.25;;;;;;;13.73;51.58;101221.91;684371;28;22231;-67
2022/04/14 01:31:28;;;;;;;496.33;429.33;;;;;;;13.74;51.64;101223.56;685440;28;23492;-67
2022/04/14 01:31:50;;;;;;;493.95;418.50;;;;;;;13.75;51.47;101227.13;684756;28;21490;-67
2022/04/14 01:32:12;;;;;;;493.98;414.77;;;;;;;13.75;51.70;101227.97;684273;28;45338;-67
2022/04/14 01:32:33;;;;;;;496.70;422.58;;;;;;;13.76;51.32;101220.66;683653;28;46142;-67
2022/04/14 01:32:54;;;;;;;496.42;420.50;;;;;;;13.77;51.66;101222.34;685016;28;22408;-67
2022/04/14 01:33:16;;;;;;;495.33;418.38;;;;;;;13.75;51.73;101224.41;686440;28;22360;-66
2022/04/14 01:33:38;;;;;;;492.85;412.75;;;;;;;13.76;51.67;101234.22;684783;28;44389;-67
2022/04/14 01:34:00;;;;;;;494.60;421.13;;;;;;;13.76;51.46;101224.22;684588;28;46184;-67
2022/04/14 01:34:21;;;;;;;499.92;441.73;;;;;;;13.75;51.52;101217.09;683679;28;47556;-67
2022/04/14 01:34:42;;;;;;;500.08;441.73;;;;;;;13.80;51.71;101230.13;685303;28;21553;-68
2022/04/14 01:35:06;;;;;;;495.48;418.65;;;;;;;13.80;51.30;101225.53;685319;28;23813;-67
2022/04/14 01:35:27;;;;;;;493.70;407.90;;;;;;;13.80;51.84;101225.53;682784;28;92013;-67
2022/04/14 01:35:48;;;;;;;494.52;416.35;;;;;;;13.81;51.27;101221.78;685263;28;23083;-67
2022/04/14 01:36:09;;;;;;;495.20;421.38;;;;;;;13.85;51.51;101225.81;685161;28;22204;-67
2022/04/14 01:36:31;;;;;;;494.90;418.75;;;;;;;13.87;51.50;101226.47;685194;28;23414;-67
2022/04/14 01:36:52;;;;;;;492.23;406.08;;;;;;;13.88;51.74;101230.03;684189;28;47264;-67
2022/04/14 01:37:13;;;;;;;495.70;420.00;;;;;;;13.89;51.27;101234.44;685491;28;23649;-67
2022/04/14 01:37:34;;;;;;;499.45;435.17;;;;;;;13.89;51.22;101229.00;684896;28;22285;-68
2022/04/14 01:37:56;;;;;;;496.17;419.02;;;;;;;13.89;51.71;101229.00;684955;28;23400;-68
2022/04/14 01:38:17;;;;;;;495.50;422.08;;;;;;;13.91;51.73;101226.09;684165;28;45227;-67
2022/04/14 01:38:39;;;;;;;496.80;425.67;;;;;;;13.91;51.74;101226.09;684990;28;22404;-66
2022/04/14 01:39:00;;;;;;;495.10;423.55;;;;;;;13.92;51.27;101231.34;684664;28;46257;-67